createdAt,value
2018-01-29T00:00:03.817Z,12.03
2018-01-29T00:02:32.233Z,11.23
2018-01-29T00:05:00.581Z,13.03
2018-01-29T00:07:28.849Z,11.10
2018-01-29T00:09:58.024Z,13.00
2018-01-29T00:12:26.320Z,11.80
2018-01-29T00:14:54.634Z,11.27
2018-01-29T00:17:22.920Z,10.80
2018-01-29T00:19:51.214Z,11.60
2018-01-29T00:22:19.528Z,10.47
2018-01-29T00:24:48.624Z,10.37
2018-01-29T00:27:17.989Z,11.07
2018-01-29T00:29:46.245Z,10.80
2018-01-29T00:32:14.525Z,10.73
2018-01-29T00:34:42.896Z,10.37
2018-01-29T00:37:11.187Z,10.17
2018-01-29T00:39:39.504Z,9.77
2018-01-29T00:42:08.575Z,10.53
2018-01-29T00:44:36.848Z,9.20
2018-01-29T00:47:05.053Z,10.23
2018-01-29T00:49:34.169Z,9.43
2018-01-29T00:52:02.401Z,9.40
2018-01-29T00:54:30.808Z,9.17
2018-01-29T00:56:59.835Z,8.87
2018-01-29T00:59:28.064Z,8.80
2018-01-29T01:01:57.068Z,9.07
2018-01-29T01:04:26.095Z,9.20
2018-01-29T01:06:54.384Z,8.17
2018-01-29T01:09:22.661Z,8.60
2018-01-29T01:11:50.962Z,8.20
2018-01-29T01:14:19.342Z,8.27
2018-01-29T01:16:47.602Z,8.17
2018-01-29T01:19:15.833Z,8.23
2018-01-29T01:21:44.105Z,8.07
2018-01-29T01:24:13.098Z,7.87
2018-01-29T01:26:42.523Z,8.03
2018-01-29T01:29:11.521Z,8.03
2018-01-29T01:31:39.756Z,8.13
2018-01-29T01:34:08.136Z,8.33
2018-01-29T01:36:36.387Z,8.37
2018-01-29T01:39:04.640Z,8.23
2018-01-29T01:41:33.032Z,8.47
2018-01-29T01:44:01.261Z,7.77
2018-01-29T01:46:29.759Z,8.30
2018-01-29T01:48:58.008Z,7.80
2018-01-29T01:51:27.013Z,7.90
2018-01-29T01:53:55.241Z,8.17
2018-01-29T01:56:23.552Z,8.00
2018-01-29T01:58:52.556Z,9.00
2018-01-29T02:01:20.851Z,8.33
2018-01-29T02:03:49.898Z,8.77
2018-01-29T02:06:18.136Z,8.90
2018-01-29T02:08:46.468Z,8.37
2018-01-29T02:11:15.555Z,8.77
2018-01-29T02:13:44.347Z,8.73
2018-01-29T02:16:12.618Z,8.33
2018-01-29T02:18:41.072Z,8.33
2018-01-29T02:21:09.509Z,8.17
2018-01-29T02:23:37.862Z,8.40
2018-01-29T02:26:06.173Z,8.00
2018-01-29T02:28:35.906Z,8.57
2018-01-29T02:31:04.432Z,8.57
2018-01-29T02:33:33.596Z,8.00
2018-01-29T02:36:02.701Z,8.53
2018-01-29T02:38:31.031Z,9.07
2018-01-29T02:41:00.604Z,8.03
2018-01-29T02:43:28.956Z,8.87
2018-01-29T02:45:57.237Z,8.53
2018-01-29T02:48:25.505Z,8.90
2018-01-29T02:50:53.773Z,9.27
2018-01-29T02:53:22.029Z,9.17
2018-01-29T02:55:51.033Z,8.93
2018-01-29T02:58:19.315Z,9.07
2018-01-29T03:00:47.584Z,9.07
2018-01-29T03:03:15.908Z,8.83
2018-01-29T03:05:44.304Z,8.40
2018-01-29T03:08:13.536Z,8.80
2018-01-29T03:10:42.121Z,8.33
2018-01-29T03:13:10.464Z,8.63
2018-01-29T03:15:39.557Z,8.03
2018-01-29T03:18:09.045Z,8.70
2018-01-29T03:20:37.435Z,9.07
2018-01-29T03:23:05.703Z,8.67
2018-01-29T03:25:34.216Z,8.40
2018-01-29T03:28:03.278Z,9.90
2018-01-29T03:30:31.552Z,9.47
2018-01-29T03:32:59.788Z,8.90
2018-01-29T03:35:28.055Z,9.57
2018-01-29T03:37:56.283Z,9.30
2018-01-29T03:40:24.825Z,9.20
2018-01-29T03:42:53.040Z,9.33
2018-01-29T03:45:21.272Z,9.33
2018-01-29T03:47:49.536Z,9.83
2018-01-29T03:50:17.812Z,9.83
2018-01-29T03:52:46.192Z,9.30
2018-01-29T03:55:14.534Z,9.70
2018-01-29T03:57:42.745Z,9.50
2018-01-29T04:00:11.069Z,10.10
2018-01-29T04:02:39.313Z,9.03
2018-01-29T04:05:07.557Z,9.60
2018-01-29T04:07:36.080Z,8.87
2018-01-29T04:10:04.352Z,9.97
2018-01-29T04:12:32.628Z,9.93
2018-01-29T04:15:01.047Z,9.73
2018-01-29T04:17:29.272Z,9.10
2018-01-29T04:19:57.520Z,9.50
2018-01-29T04:22:26.647Z,8.43
2018-01-29T04:24:54.912Z,9.43
2018-01-29T04:27:23.177Z,8.67
2018-01-29T04:29:51.628Z,8.87
2018-01-29T04:32:21.230Z,9.20
2018-01-29T04:34:49.487Z,9.40
2018-01-29T04:37:17.721Z,9.70
2018-01-29T04:39:46.748Z,8.97
2018-01-29T04:42:14.995Z,9.33
2018-01-29T04:44:43.249Z,9.27
2018-01-29T04:47:11.552Z,9.27
2018-01-29T04:49:39.800Z,9.07
2018-01-29T04:52:08.092Z,9.33
2018-01-29T04:54:36.420Z,9.70
2018-01-29T04:57:04.661Z,8.47
2018-01-29T04:59:32.936Z,9.00
2018-01-29T05:02:01.308Z,8.87
2018-01-29T05:04:30.380Z,8.47
2018-01-29T05:06:58.609Z,8.77
2018-01-29T05:09:26.916Z,8.50
2018-01-29T05:11:55.914Z,8.10
2018-01-29T05:14:24.138Z,8.60
2018-01-29T05:16:52.456Z,8.40
2018-01-29T05:19:21.117Z,8.20
2018-01-29T05:21:49.384Z,8.10
2018-01-29T05:24:17.728Z,9.10
2018-01-29T05:26:46.732Z,8.50
2018-01-29T05:29:14.986Z,8.00
2018-01-29T05:31:44.248Z,8.67
2018-01-29T05:34:13.255Z,8.50
2018-01-29T05:37:02.394Z,8.47
2018-01-29T05:39:30.675Z,8.37
2018-01-29T05:41:59.030Z,8.00
2018-01-29T05:44:27.420Z,7.60
2018-01-29T05:46:56.442Z,8.03
2018-01-29T05:49:24.739Z,7.77
2018-01-29T05:51:52.987Z,8.17
2018-01-29T05:54:21.365Z,7.27
2018-01-29T05:56:49.608Z,7.47
2018-01-29T05:59:17.921Z,7.93
2018-01-29T06:01:46.160Z,7.93
2018-01-29T06:04:14.396Z,8.57
2018-01-29T06:06:43.461Z,8.60
2018-01-29T06:09:11.704Z,8.30
2018-01-29T06:11:40.311Z,8.60
2018-01-29T06:14:08.564Z,8.80
2018-01-29T06:16:36.797Z,8.33
2018-01-29T06:19:05.077Z,8.90
2018-01-29T06:21:33.372Z,9.10
2018-01-29T06:24:02.396Z,9.00
2018-01-29T06:26:30.790Z,8.40
2018-01-29T06:28:59.115Z,8.73
2018-01-29T06:31:27.578Z,8.50
2018-01-29T06:33:56.729Z,8.60
2018-01-29T06:36:25.507Z,9.27
2018-01-29T06:38:54.082Z,8.43
2018-01-29T06:41:23.220Z,8.53
2018-01-29T06:43:51.655Z,9.30
2018-01-29T06:46:20.054Z,9.80
2018-01-29T06:48:48.288Z,8.63
2018-01-29T06:51:16.663Z,8.50
2018-01-29T06:53:44.872Z,9.03
2018-01-29T06:56:13.208Z,9.47
2018-01-29T06:58:41.552Z,9.83
2018-01-29T07:01:09.877Z,9.50
2018-01-29T07:03:38.136Z,8.20
2018-01-29T07:06:06.776Z,8.97
2018-01-29T07:08:35.039Z,9.00
2018-01-29T07:11:04.109Z,8.57
2018-01-29T07:13:32.501Z,8.37
2018-01-29T07:16:01.529Z,9.20
2018-01-29T07:18:29.805Z,9.30
2018-01-29T07:20:58.838Z,9.20
2018-01-29T07:23:27.121Z,9.27
2018-01-29T07:25:55.560Z,8.53
2018-01-29T07:28:23.879Z,8.37
2018-01-29T07:30:52.196Z,8.33
2018-01-29T07:33:20.423Z,8.60
2018-01-29T07:35:48.681Z,8.60
2018-01-29T07:38:16.969Z,8.93
2018-01-29T07:40:45.208Z,9.40
2018-01-29T07:43:14.251Z,9.20
2018-01-29T07:45:42.536Z,8.33
2018-01-29T07:48:10.856Z,8.53
2018-01-29T07:50:40.024Z,8.63
2018-01-29T07:53:08.275Z,9.10
2018-01-29T07:55:36.509Z,8.40
2018-01-29T07:58:05.532Z,8.17
2018-01-29T08:00:33.862Z,8.43
2018-01-29T08:03:02.097Z,8.10
2018-01-29T08:05:30.463Z,8.50
2018-01-29T08:07:58.744Z,8.20
2018-01-29T08:10:26.983Z,7.63
2018-01-29T08:12:56.081Z,8.40
2018-01-29T08:15:25.138Z,8.57
2018-01-29T08:17:53.382Z,7.90
2018-01-29T08:20:21.624Z,8.30
2018-01-29T08:22:50.624Z,8.10
2018-01-29T08:25:18.927Z,8.37
2018-01-29T08:27:47.172Z,8.23
2018-01-29T08:30:16.197Z,8.10
2018-01-29T08:32:44.500Z,7.93
2018-01-29T08:35:12.836Z,8.77
2018-01-29T08:37:41.279Z,7.80
2018-01-29T08:40:09.577Z,8.07
2018-01-29T08:42:38.612Z,7.80
2018-01-29T08:45:06.856Z,7.83
2018-01-29T08:47:35.192Z,7.50
2018-01-29T08:50:03.515Z,7.87
2018-01-29T08:52:32.531Z,7.73
2018-01-29T08:55:00.800Z,8.00
2018-01-29T08:57:29.177Z,7.63
2018-01-29T08:59:57.428Z,8.00
2018-01-29T09:02:26.421Z,7.83
2018-01-29T09:04:55.486Z,7.80
2018-01-29T09:07:23.742Z,7.83
2018-01-29T09:09:52.007Z,7.50
2018-01-29T09:12:20.369Z,7.53
2018-01-29T09:14:48.616Z,7.60
2018-01-29T09:17:17.606Z,7.73
2018-01-29T09:19:46.688Z,7.07
2018-01-29T09:22:14.930Z,7.53
2018-01-29T09:24:43.353Z,7.73
2018-01-29T09:27:11.620Z,7.53
2018-01-29T09:29:39.960Z,7.80
2018-01-29T09:32:08.201Z,7.27
2018-01-29T09:34:36.533Z,7.63
2018-01-29T09:37:04.840Z,7.73
2018-01-29T09:39:33.941Z,8.13
2018-01-29T09:42:04.428Z,7.80
2018-01-29T09:44:32.693Z,7.80
2018-01-29T09:47:00.929Z,7.27
2018-01-29T09:49:30.480Z,7.20
2018-01-29T09:51:58.753Z,7.63
2018-01-29T09:54:27.080Z,7.57
2018-01-29T09:56:56.184Z,7.97
2018-01-29T09:59:25.341Z,8.07
2018-01-29T10:01:53.726Z,8.20
2018-01-29T10:04:22.233Z,7.80
2018-01-29T10:06:51.244Z,7.07
2018-01-29T10:09:19.483Z,8.57
2018-01-29T10:11:47.756Z,7.80
2018-01-29T10:14:15.985Z,7.83
2018-01-29T10:16:44.329Z,7.33
2018-01-29T10:19:13.393Z,7.77
2018-01-29T10:21:41.634Z,7.40
2018-01-29T10:24:09.856Z,7.67
2018-01-29T10:26:39.001Z,10.57
2018-01-29T10:29:07.256Z,7.93
2018-01-29T10:31:36.373Z,8.03
2018-01-29T10:34:05.381Z,7.60
2018-01-29T10:36:33.604Z,7.80
2018-01-29T10:39:01.943Z,7.43
2018-01-29T10:41:30.290Z,8.60
2018-01-29T10:43:59.394Z,8.10
2018-01-29T10:46:29.338Z,8.10
2018-01-29T10:48:58.126Z,8.20
2018-01-29T10:51:26.640Z,7.60
2018-01-29T10:53:54.983Z,7.60
2018-01-29T10:56:23.289Z,8.20
2018-01-29T10:58:51.561Z,8.20
2018-01-29T11:01:23.416Z,7.40
2018-01-29T11:03:51.975Z,7.80
2018-01-29T11:06:39.322Z,8.33
2018-01-29T11:09:07.700Z,7.13
2018-01-29T11:11:36.015Z,8.83
2018-01-29T11:14:04.304Z,8.37
2018-01-29T11:16:33.336Z,8.10
2018-01-29T11:19:01.600Z,7.90
2018-01-29T11:21:29.920Z,8.03
2018-01-29T11:23:58.272Z,8.07
2018-01-29T11:26:26.524Z,7.90
2018-01-29T11:28:54.854Z,8.13
2018-01-29T11:31:23.889Z,8.43
2018-01-29T11:33:52.924Z,7.93
2018-01-29T11:36:21.179Z,8.10
2018-01-29T11:38:49.535Z,8.03
2018-01-29T11:41:18.545Z,8.00
2018-01-29T11:43:46.787Z,7.77
2018-01-29T11:46:15.140Z,7.83
2018-01-29T11:48:43.434Z,8.27
2018-01-29T11:51:11.734Z,9.10
2018-01-29T11:53:40.033Z,9.50
2018-01-29T11:56:08.336Z,8.40
2018-01-29T11:58:36.603Z,8.73
2018-01-29T12:01:04.864Z,8.20
2018-01-29T12:03:33.091Z,8.20
2018-01-29T12:06:01.436Z,8.20
2018-01-29T12:08:29.778Z,8.50
2018-01-29T12:10:58.001Z,8.00
2018-01-29T12:13:26.258Z,8.60
2018-01-29T12:15:54.612Z,8.67
2018-01-29T12:18:23.633Z,8.80
2018-01-29T12:20:51.910Z,8.50
2018-01-29T12:23:20.202Z,8.90
2018-01-29T12:25:48.436Z,8.33
2018-01-29T12:28:16.705Z,8.63
2018-01-29T12:30:45.419Z,8.40
2018-01-29T12:33:13.683Z,8.40
2018-01-29T12:35:41.918Z,8.07
2018-01-29T12:38:10.268Z,8.17
2018-01-29T12:40:38.544Z,8.03
2018-01-29T12:43:06.876Z,8.27
2018-01-29T12:45:35.991Z,8.23
2018-01-29T12:48:05.651Z,8.10
2018-01-29T12:50:34.080Z,8.33
2018-01-29T12:53:02.410Z,8.10
2018-01-29T12:55:30.685Z,7.37
2018-01-29T12:57:59.616Z,7.70
2018-01-29T13:00:28.440Z,7.23
2018-01-29T13:02:56.919Z,7.90
2018-01-29T13:05:25.359Z,7.50
2018-01-29T13:07:53.621Z,7.33
2018-01-29T13:10:22.138Z,7.80
2018-01-29T13:15:18.224Z,7.60
2018-01-29T13:17:47.315Z,7.83
2018-01-29T13:20:15.651Z,7.50
2018-01-29T13:22:43.976Z,7.27
2018-01-29T13:25:12.288Z,7.60
2018-01-29T13:27:41.323Z,7.50
2018-01-29T13:30:09.721Z,7.60
2018-01-29T13:32:37.999Z,7.60
2018-01-29T13:35:06.232Z,7.43
2018-01-29T13:37:34.704Z,7.73
2018-01-29T13:40:03.887Z,8.00
2018-01-29T13:42:32.164Z,7.73
2018-01-29T13:45:00.524Z,7.60
2018-01-29T13:47:28.841Z,7.83
2018-01-29T13:49:57.905Z,7.90
2018-01-29T13:52:26.942Z,7.97
2018-01-29T13:54:55.279Z,7.57
2018-01-29T13:57:23.562Z,8.40
2018-01-29T13:59:51.849Z,7.67
2018-01-29T14:02:20.082Z,7.63
2018-01-29T14:04:48.454Z,7.37
2018-01-29T14:07:16.765Z,7.90
2018-01-29T14:09:45.166Z,7.27
2018-01-29T14:12:13.452Z,7.80
2018-01-29T14:14:41.725Z,7.80
2018-01-29T14:17:10.721Z,8.40
2018-01-29T14:19:39.742Z,7.37
2018-01-29T14:22:08.057Z,7.70
2018-01-29T14:24:36.356Z,7.90
2018-01-29T14:27:04.745Z,8.37
2018-01-29T14:29:33.884Z,8.00
2018-01-29T14:32:02.148Z,8.00
2018-01-29T14:34:31.139Z,7.63
2018-01-29T14:36:59.420Z,7.80
2018-01-29T14:39:27.765Z,7.70
2018-01-29T14:41:55.972Z,7.30
2018-01-29T14:44:24.275Z,7.10
2018-01-29T14:46:52.493Z,8.20
2018-01-29T14:49:21.480Z,7.90
2018-01-29T14:51:50.673Z,7.80
2018-01-29T14:54:18.904Z,7.60
2018-01-29T14:56:47.269Z,8.30
2018-01-29T14:59:15.534Z,7.93
2018-01-29T15:01:43.815Z,7.90
2018-01-29T15:04:12.041Z,8.10
2018-01-29T15:06:40.326Z,8.07
2018-01-29T15:09:08.583Z,8.47
2018-01-29T15:11:37.041Z,8.03
2018-01-29T15:14:05.320Z,7.97
2018-01-29T15:16:33.560Z,8.00
2018-01-29T15:19:02.599Z,8.13
2018-01-29T15:21:30.844Z,8.87
2018-01-29T15:23:59.356Z,8.30
2018-01-29T15:26:27.594Z,8.10
2018-01-29T15:28:56.680Z,9.10
2018-01-29T15:31:25.692Z,8.17
2018-01-29T15:33:53.925Z,8.37
2018-01-29T15:36:22.241Z,8.80
2018-01-29T15:38:50.481Z,8.60
2018-01-29T15:41:18.720Z,8.30
2018-01-29T15:43:47.104Z,8.00
2018-01-29T15:46:15.347Z,7.77
2018-01-29T15:48:44.378Z,8.20
2018-01-29T15:51:12.661Z,8.47
2018-01-29T15:53:40.956Z,8.30
2018-01-29T15:56:09.185Z,8.20
2018-01-29T15:58:37.686Z,8.70
2018-01-29T16:01:05.952Z,8.30
2018-01-29T16:03:34.210Z,8.63
2018-01-29T16:06:02.614Z,8.77
2018-01-29T16:08:30.880Z,8.73
2018-01-29T16:10:59.902Z,8.23
2018-01-29T16:13:28.289Z,8.50
2018-01-29T16:15:56.588Z,8.93
2018-01-29T16:18:25.573Z,8.63
2018-01-29T16:20:54.787Z,8.40
2018-01-29T16:23:23.792Z,8.87
2018-01-29T16:25:52.100Z,8.77
2018-01-29T16:28:20.416Z,8.57
2018-01-29T16:30:48.677Z,8.97
2018-01-29T16:33:16.909Z,8.40
2018-01-29T16:35:45.196Z,8.60
2018-01-29T16:38:13.454Z,8.87
2018-01-29T16:40:41.774Z,9.47
2018-01-29T16:43:11.317Z,9.27
2018-01-29T16:45:39.529Z,9.00
2018-01-29T16:48:07.795Z,8.70
2018-01-29T16:50:36.037Z,8.67
2018-01-29T16:53:04.284Z,8.93
2018-01-29T16:55:32.598Z,8.90
2018-01-29T16:58:00.940Z,9.17
2018-01-29T17:00:29.255Z,8.33
2018-01-29T17:02:58.407Z,8.40
2018-01-29T17:05:26.663Z,8.50
2018-01-29T17:07:54.961Z,8.90
2018-01-29T17:10:23.213Z,8.87
2018-01-29T17:12:51.476Z,9.00
2018-01-29T17:15:19.755Z,9.00
2018-01-29T17:17:48.936Z,9.30
2018-01-29T17:20:17.949Z,9.50
2018-01-29T17:22:46.172Z,9.23
2018-01-29T17:25:14.494Z,8.97
2018-01-29T17:27:44.162Z,9.50
2018-01-29T17:30:12.415Z,9.00
2018-01-29T17:32:40.655Z,9.30
2018-01-29T17:35:08.920Z,8.90
2018-01-29T17:37:37.927Z,8.80
2018-01-29T17:40:06.248Z,8.73
2018-01-29T17:42:34.524Z,8.30
2018-01-29T17:45:02.764Z,8.53
2018-01-29T17:47:31.059Z,8.43
2018-01-29T17:49:59.391Z,8.80
2018-01-29T17:52:27.670Z,8.67
2018-01-29T17:54:56.735Z,8.17
2018-01-29T17:57:25.156Z,8.70
2018-01-29T17:59:53.417Z,8.53
2018-01-29T18:02:22.428Z,8.30
2018-01-29T18:04:50.712Z,8.50
2018-01-29T18:07:19.012Z,8.80
2018-01-29T18:09:47.268Z,9.00
2018-01-29T18:12:15.596Z,8.90
2018-01-29T18:14:44.588Z,8.93
2018-01-29T18:17:12.833Z,8.27
2018-01-29T18:19:41.218Z,10.03
2018-01-29T18:22:09.454Z,9.40
2018-01-29T18:24:38.497Z,8.70
2018-01-29T18:27:06.761Z,9.00
2018-01-29T18:29:34.996Z,12.77
2018-01-29T18:32:03.260Z,8.93
2018-01-29T18:34:32.450Z,9.60
2018-01-29T18:37:00.786Z,9.00
2018-01-29T18:39:29.032Z,9.47
2018-01-29T18:41:57.297Z,9.33
2018-01-29T18:44:26.296Z,9.20
2018-01-29T18:46:55.369Z,9.20
2018-01-29T18:49:23.648Z,9.60
2018-01-29T18:51:51.892Z,8.27
2018-01-29T18:54:20.128Z,8.57
2018-01-29T18:56:48.695Z,9.10
2018-01-29T18:59:17.793Z,9.00
2018-01-29T19:01:46.785Z,8.93
2018-01-29T19:04:15.864Z,8.40
2018-01-29T19:06:44.133Z,9.67
2018-01-29T19:09:12.374Z,9.13
2018-01-29T19:11:40.868Z,9.77
2018-01-29T19:14:09.138Z,9.37
2018-01-29T19:16:37.361Z,9.17
2018-01-29T19:19:06.478Z,9.73
2018-01-29T19:21:34.706Z,9.33
2018-01-29T19:24:03.129Z,10.03
2018-01-29T19:26:32.162Z,9.20
2018-01-29T19:29:00.394Z,9.47
2018-01-29T19:31:28.655Z,9.53
2018-01-29T19:33:56.999Z,9.63
2018-01-29T19:36:25.284Z,9.30
2018-01-29T19:38:53.556Z,9.63
2018-01-29T19:41:21.836Z,9.50
2018-01-29T19:43:50.125Z,9.53
2018-01-29T19:46:18.372Z,9.67
2018-01-29T19:48:46.665Z,9.53
2018-01-29T19:51:14.901Z,9.50
2018-01-29T19:53:43.999Z,8.83
2018-01-29T19:56:13.263Z,8.57
2018-01-29T19:58:42.413Z,9.00
2018-01-29T20:01:10.646Z,8.93
2018-01-29T20:03:39.772Z,9.17
2018-01-29T20:06:08.057Z,9.17
2018-01-29T20:08:36.321Z,8.77
2018-01-29T20:11:05.117Z,8.60
2018-01-29T20:13:34.067Z,9.40
2018-01-29T20:16:03.254Z,8.77
2018-01-29T20:18:31.617Z,8.47
2018-01-29T20:20:59.867Z,8.83
2018-01-29T20:23:28.100Z,8.47
2018-01-29T20:25:57.269Z,8.63
2018-01-29T20:28:26.111Z,8.20
2018-01-29T20:30:56.164Z,8.87
2018-01-29T20:33:25.636Z,8.17
2018-01-29T20:35:56.206Z,8.50
2018-01-29T20:38:25.459Z,8.57
2018-01-29T20:40:55.175Z,8.20
2018-01-29T20:43:25.182Z,8.30
2018-01-29T20:45:54.093Z,8.00
2018-01-29T20:48:22.502Z,8.10
2018-01-29T20:50:51.514Z,8.20
2018-01-29T20:53:19.945Z,8.33
2018-01-29T20:55:48.994Z,8.27
2018-01-29T20:58:17.224Z,8.30
2018-01-29T21:00:46.535Z,8.40
2018-01-29T21:03:16.837Z,8.90
2018-01-29T21:05:45.998Z,9.20
2018-01-29T21:08:14.973Z,8.60
2018-01-29T21:10:45.707Z,9.10
2018-01-29T21:13:15.210Z,9.20
2018-01-29T21:15:44.550Z,9.60
2018-01-29T21:18:13.498Z,8.83
2018-01-29T21:20:41.688Z,9.37
2018-01-29T21:23:10.533Z,9.63
2018-01-29T21:25:39.890Z,9.33
2018-01-29T21:28:10.553Z,9.90
2018-01-29T21:30:39.116Z,9.97
2018-01-29T21:33:08.010Z,9.87
2018-01-29T21:35:36.428Z,9.70
2018-01-29T21:38:05.043Z,9.47
2018-01-29T21:40:33.340Z,9.20
2018-01-29T21:43:02.390Z,9.17
2018-01-29T21:45:31.400Z,8.93
2018-01-29T21:47:59.682Z,9.07
2018-01-29T21:50:28.050Z,8.40
2018-01-29T21:52:57.216Z,9.07
2018-01-29T21:55:26.909Z,10.17
2018-01-29T21:57:55.347Z,9.93
2018-01-29T22:00:24.061Z,9.13
2018-01-29T22:02:53.531Z,8.27
2018-01-29T22:05:23.200Z,9.80
2018-01-29T22:07:52.008Z,9.07
2018-01-29T22:10:21.146Z,9.57
2018-01-29T22:12:49.410Z,8.53
2018-01-29T22:15:17.679Z,9.13
2018-01-29T22:17:45.998Z,8.70
2018-01-29T22:20:14.272Z,8.77
2018-01-29T22:22:42.541Z,9.20
2018-01-29T22:25:11.114Z,8.80
2018-01-29T22:27:39.493Z,8.20
2018-01-29T22:30:07.745Z,8.63
2018-01-29T22:32:36.067Z,7.90
2018-01-29T22:35:04.448Z,9.30
2018-01-29T22:37:32.690Z,9.07
2018-01-29T22:40:02.240Z,8.63
2018-01-29T22:42:30.501Z,8.30
2018-01-29T22:44:58.785Z,8.90
2018-01-29T22:47:27.850Z,8.47
2018-01-29T22:49:56.373Z,8.30
2018-01-29T22:52:24.618Z,8.57
2018-01-29T22:54:52.895Z,8.47
2018-01-29T22:57:21.148Z,8.83
2018-01-29T22:59:49.384Z,9.00
2018-01-29T23:02:19.008Z,8.50
2018-01-29T23:04:48.028Z,9.03
2018-01-29T23:07:16.320Z,8.17
2018-01-29T23:09:44.576Z,8.77
2018-01-29T23:12:12.914Z,9.33
2018-01-29T23:14:41.190Z,8.50
2018-01-29T23:17:09.434Z,8.40
2018-01-29T23:19:37.680Z,8.20
2018-01-29T23:22:05.900Z,8.60
2018-01-29T23:24:34.184Z,8.97
2018-01-29T23:27:02.436Z,8.70
2018-01-29T23:29:30.688Z,8.53
2018-01-29T23:31:58.953Z,9.07
2018-01-29T23:34:27.947Z,8.47
2018-01-29T23:36:56.940Z,8.80
2018-01-29T23:39:25.216Z,8.73
2018-01-29T23:41:53.494Z,8.50
2018-01-29T23:44:21.869Z,9.13
2018-01-29T23:46:50.179Z,9.43
2018-01-29T23:49:18.420Z,9.00
2018-01-29T23:51:47.411Z,9.07
2018-01-29T23:54:17.252Z,9.50
2018-01-29T23:56:45.507Z,9.87
2018-01-29T23:59:13.785Z,8.90
